createdAt,value
2018-09-30T00:01:21.366Z,19.00
2018-09-30T00:03:51.202Z,19.00
2018-09-30T00:06:20.763Z,19.00
2018-09-30T00:18:47.952Z,18.90
2018-09-30T00:23:51.969Z,18.90
2018-09-30T00:28:56.091Z,18.90
2018-09-30T00:34:00.182Z,18.90
2018-09-30T00:38:59.059Z,18.80
2018-09-30T00:43:57.796Z,18.80
2018-09-30T00:51:25.666Z,18.80
2018-09-30T00:56:24.342Z,18.80
2018-09-30T01:08:51.301Z,18.70
2018-09-30T01:13:50.846Z,18.70
2018-09-30T01:16:20.409Z,18.60
2018-09-30T01:26:17.399Z,18.60
2018-09-30T01:31:16.327Z,18.60
2018-09-30T01:33:45.916Z,18.60
2018-09-30T01:36:15.475Z,18.60
2018-09-30T01:41:14.238Z,18.50
2018-09-30T01:43:43.801Z,18.50
2018-09-30T01:46:13.743Z,18.50
2018-09-30T01:48:43.323Z,18.50
2018-09-30T01:51:12.904Z,18.40
2018-09-30T01:56:12.976Z,18.40
2018-09-30T01:58:43.036Z,18.50
2018-09-30T02:01:12.615Z,18.40
2018-09-30T02:03:42.194Z,18.40
2018-09-30T02:06:11.749Z,18.40
2018-09-30T02:08:41.309Z,18.40
2018-09-30T02:18:38.443Z,18.40
2018-09-30T02:23:37.128Z,18.40
2018-09-30T02:31:05.516Z,18.40
2018-09-30T02:33:35.080Z,18.40
2018-09-30T02:48:32.009Z,18.40
2018-09-30T02:53:34.346Z,18.40
2018-09-30T02:56:04.333Z,18.40
2018-09-30T02:58:34.653Z,18.40
2018-09-30T03:08:39.142Z,18.40
2018-09-30T03:11:08.730Z,18.40
2018-09-30T03:21:05.666Z,18.40
2018-09-30T03:23:35.258Z,18.30
2018-09-30T03:26:05.072Z,18.30
2018-09-30T03:33:34.179Z,18.30
2018-09-30T03:46:01.177Z,18.30
2018-09-30T03:48:30.745Z,18.40
2018-09-30T04:03:27.616Z,18.40
2018-09-30T04:08:26.441Z,18.40
2018-09-30T04:15:54.349Z,18.30
2018-09-30T04:20:53.074Z,18.30
2018-09-30T04:23:22.651Z,18.30
2018-09-30T04:28:21.344Z,18.30
2018-09-30T04:30:50.901Z,18.20
2018-09-30T04:40:47.869Z,18.20
2018-09-30T04:43:17.430Z,18.30
2018-09-30T04:45:47.013Z,18.30
2018-09-30T04:48:16.591Z,18.30
2018-09-30T04:55:44.632Z,18.20
2018-09-30T05:05:41.600Z,18.20
2018-09-30T05:08:11.251Z,18.20
2018-09-30T05:13:09.943Z,18.20
2018-09-30T05:20:37.758Z,18.10
2018-09-30T05:23:08.073Z,18.10
2018-09-30T05:25:37.993Z,18.10
2018-09-30T05:28:08.185Z,18.10
2018-09-30T05:30:37.968Z,18.10
2018-09-30T05:33:08.406Z,18.10
2018-09-30T05:35:38.264Z,18.10
2018-09-30T05:38:08.128Z,18.10
2018-09-30T05:53:07.900Z,18.10
2018-09-30T06:00:32.026Z,18.10
2018-09-30T06:12:58.721Z,18.10
2018-09-30T06:15:28.301Z,18.10
2018-09-30T06:20:27.001Z,18.10
2018-09-30T06:25:25.701Z,18.10
2018-09-30T06:27:55.258Z,18.10
2018-09-30T06:32:54.246Z,18.10
2018-09-30T06:35:23.813Z,18.10
2018-09-30T06:37:53.416Z,18.00
2018-09-30T06:42:52.086Z,18.10
2018-09-30T06:55:18.553Z,18.10
2018-09-30T07:00:17.256Z,18.10
2018-09-30T07:02:46.826Z,18.10
2018-09-30T07:07:45.683Z,18.20
2018-09-30T07:12:44.346Z,18.40
2018-09-30T07:15:13.935Z,18.40
2018-09-30T07:20:12.838Z,18.50
2018-09-30T07:22:42.439Z,18.50
2018-09-30T07:27:41.327Z,18.70
2018-09-30T07:30:10.985Z,18.80
2018-09-30T07:32:41.288Z,18.80
2018-09-30T07:35:11.100Z,19.10
2018-09-30T07:37:41.133Z,19.30
2018-09-30T07:40:11.241Z,19.30
2018-09-30T07:42:41.475Z,19.40
2018-09-30T07:45:11.389Z,19.40
2018-09-30T07:47:41.392Z,19.50
2018-09-30T07:50:11.829Z,19.60
2018-09-30T07:52:42.427Z,19.70
2018-09-30T07:57:41.426Z,19.90
2018-09-30T08:00:11.803Z,19.90
2018-09-30T08:02:42.442Z,20.00
2018-09-30T08:05:12.025Z,20.00
2018-09-30T08:07:42.167Z,20.10
2018-09-30T08:10:12.087Z,20.20
2018-09-30T08:12:42.688Z,20.20
2018-09-30T08:15:12.266Z,19.70
2018-09-30T08:17:42.518Z,19.70
2018-09-30T08:20:12.334Z,19.70
2018-09-30T08:27:41.469Z,20.10
2018-09-30T08:30:11.052Z,20.10
2018-09-30T08:32:41.601Z,20.10
2018-09-30T08:35:11.181Z,20.10
2018-09-30T08:40:19.532Z,20.20
2018-09-30T08:42:49.146Z,20.30
2018-09-30T08:57:44.389Z,20.80
2018-09-30T09:00:13.981Z,20.90
2018-09-30T09:02:43.650Z,21.10
2018-09-30T09:07:42.829Z,21.30
2018-09-30T09:17:13.026Z,21.90
2018-09-30T09:22:12.656Z,22.50
2018-09-30T09:24:42.182Z,22.50
2018-09-30T09:27:11.764Z,22.80
2018-09-30T09:29:41.333Z,22.90
2018-09-30T09:34:40.009Z,23.10
2018-09-30T09:52:04.893Z,23.80
2018-09-30T09:54:34.701Z,23.80
2018-09-30T09:59:33.471Z,24.00
2018-09-30T10:02:03.312Z,24.10
2018-09-30T10:04:33.301Z,24.10
2018-09-30T10:09:31.997Z,24.20
2018-09-30T10:12:01.560Z,24.20
2018-09-30T10:14:31.151Z,24.20
2018-09-30T10:19:30.504Z,24.20
2018-09-30T10:29:28.092Z,24.20
2018-09-30T10:31:57.662Z,24.10
2018-09-30T10:34:27.235Z,24.10
2018-09-30T10:41:55.211Z,24.00
2018-09-30T11:01:55.645Z,23.80
2018-09-30T11:06:54.741Z,23.80
2018-09-30T11:14:22.922Z,23.60
2018-09-30T11:19:21.981Z,23.50
2018-09-30T11:21:51.552Z,23.40
2018-09-30T11:29:19.484Z,23.20
2018-09-30T11:34:18.190Z,23.10
2018-09-30T11:36:48.010Z,23.00
2018-09-30T11:39:17.941Z,23.00
2018-09-30T11:51:46.836Z,22.70
2018-09-30T11:56:45.504Z,22.60
2018-09-30T11:59:15.070Z,22.60
2018-09-30T12:09:12.150Z,22.50
2018-09-30T12:16:40.206Z,22.40
2018-09-30T12:21:38.888Z,22.30
2018-09-30T12:29:06.774Z,22.20
2018-09-30T12:34:05.570Z,22.10
2018-09-30T12:44:04.609Z,21.90
2018-09-30T12:46:34.176Z,21.90
2018-09-30T12:49:03.763Z,21.90
2018-09-30T12:59:00.852Z,21.80
2018-09-30T13:03:59.646Z,21.70
2018-09-30T13:06:29.224Z,21.70
2018-09-30T13:08:58.892Z,21.70
2018-09-30T13:18:55.866Z,21.80
2018-09-30T13:23:54.580Z,21.80
2018-09-30T13:26:24.600Z,21.80
2018-09-30T13:36:22.881Z,21.60
2018-09-30T13:38:52.537Z,21.60
2018-09-30T13:46:21.619Z,21.40
2018-09-30T13:51:21.816Z,21.30
2018-09-30T13:53:52.152Z,21.30
2018-09-30T14:01:21.215Z,21.30
2018-09-30T14:06:20.153Z,21.20
2018-09-30T14:08:49.716Z,21.20
2018-09-30T14:18:46.693Z,21.20
2018-09-30T14:28:43.884Z,21.10
2018-09-30T14:31:13.476Z,21.10
2018-09-30T14:36:12.198Z,21.00
2018-09-30T14:48:38.649Z,21.00
2018-09-30T14:53:37.317Z,20.90
2018-09-30T14:56:06.901Z,20.90
2018-09-30T14:58:36.484Z,20.90
2018-09-30T15:01:06.063Z,20.80
2018-09-30T15:03:35.632Z,20.80
2018-09-30T15:06:05.232Z,20.80
2018-09-30T15:11:04.405Z,20.80
2018-09-30T15:13:33.985Z,20.80
2018-09-30T15:16:03.662Z,20.70
2018-09-30T15:21:02.886Z,20.70
2018-09-30T15:23:32.462Z,20.60
2018-09-30T15:35:58.626Z,20.60
2018-09-30T15:45:55.608Z,20.50
2018-09-30T15:48:25.476Z,20.50
2018-09-30T15:50:57.122Z,20.50
2018-09-30T15:53:26.742Z,20.50
2018-09-30T15:55:56.302Z,20.50
2018-09-30T16:05:54.840Z,20.60
2018-09-30T16:08:24.389Z,20.60
2018-09-30T16:15:52.630Z,20.70
2018-09-30T16:25:51.582Z,20.50
2018-09-30T16:38:18.372Z,20.40
2018-09-30T16:43:17.056Z,20.40
2018-09-30T16:48:15.794Z,20.30
2018-09-30T16:50:45.508Z,20.30
2018-09-30T16:53:14.957Z,20.30
2018-09-30T16:58:13.672Z,20.30
2018-09-30T17:00:43.262Z,20.20
2018-09-30T17:10:41.911Z,20.20
2018-09-30T17:13:11.514Z,20.20
2018-09-30T17:15:41.098Z,20.10
2018-09-30T17:18:10.696Z,20.20
2018-09-30T17:20:40.278Z,20.10
2018-09-30T17:30:37.281Z,20.10
2018-09-30T17:40:34.299Z,20.00
2018-09-30T17:48:02.464Z,20.00
2018-09-30T17:55:30.244Z,20.10
2018-09-30T18:05:28.826Z,20.10
2018-09-30T18:20:28.505Z,20.10
2018-09-30T18:22:58.953Z,20.00
2018-09-30T18:25:29.439Z,20.00
2018-09-30T18:30:29.606Z,20.00
2018-09-30T18:45:31.887Z,20.00
2018-09-30T19:00:31.466Z,19.90
2018-09-30T19:08:00.075Z,19.90
2018-09-30T19:15:29.480Z,19.90
2018-09-30T19:17:59.033Z,19.90
2018-09-30T19:20:28.594Z,19.90
2018-09-30T19:30:25.861Z,19.80
2018-09-30T19:32:55.437Z,19.70
2018-09-30T19:42:52.589Z,19.70
2018-09-30T19:55:18.645Z,19.70
2018-09-30T20:00:17.361Z,19.60
2018-09-30T20:02:46.918Z,19.60
2018-09-30T20:15:13.261Z,19.50
2018-09-30T20:17:42.864Z,19.50
2018-09-30T20:25:10.762Z,19.50
2018-09-30T20:27:40.329Z,19.50
2018-09-30T20:35:08.447Z,19.50
2018-09-30T20:42:36.938Z,19.50
2018-09-30T20:47:36.046Z,19.50
2018-09-30T21:00:02.570Z,19.40
2018-09-30T21:02:32.677Z,19.40
2018-09-30T21:05:12.664Z,19.40
2018-09-30T21:07:42.238Z,19.40
2018-09-30T21:12:41.515Z,19.30
2018-09-30T21:15:11.088Z,19.40
2018-09-30T21:20:10.032Z,19.40
2018-09-30T21:22:39.594Z,19.40
2018-09-30T21:27:38.311Z,19.30
2018-09-30T21:30:07.896Z,19.40
2018-09-30T21:32:37.467Z,19.30
2018-09-30T21:37:36.134Z,19.30
2018-09-30T21:45:03.943Z,19.30
2018-09-30T21:47:33.651Z,19.30
2018-09-30T21:52:33.714Z,19.20
2018-09-30T21:57:33.386Z,19.20
2018-09-30T22:00:03.123Z,19.20
2018-09-30T22:12:25.984Z,19.10
2018-09-30T22:14:55.597Z,19.10
2018-09-30T22:17:25.171Z,19.10
2018-09-30T22:19:54.733Z,19.10
2018-09-30T22:27:23.156Z,19.00
2018-09-30T22:29:52.739Z,19.00
2018-09-30T22:34:51.431Z,19.00
2018-09-30T22:47:18.361Z,18.90
2018-09-30T22:49:47.912Z,18.90
2018-09-30T22:59:44.819Z,18.90
2018-09-30T23:02:14.390Z,18.90
2018-09-30T23:07:13.514Z,18.90
2018-09-30T23:14:41.389Z,18.80
2018-09-30T23:22:09.518Z,18.80
2018-09-30T23:34:36.446Z,18.70
2018-09-30T23:37:06.755Z,18.70
2018-09-30T23:39:36.741Z,18.80
2018-09-30T23:42:06.978Z,18.70
2018-09-30T23:49:35.777Z,18.70
2018-09-30T23:59:32.763Z,18.70
